Time;durP1;ratioP1;P1;durP2;ratioP2;P2;SDS_P1;SDS_P2;PMS_P1;PMS_P2;Temp;Humidity;BMP_temperature;BMP_pressure;BME280_temperature;BME280_humidity;BME280_pressure;Samples;Min_cycle;Max_cycle;Signal;HPM_P1;HPM_P2
2021/10/25 00:02:03;;;;;;;10.52;7.38;;;;;;;;;;5079479;28;20036;-84
2021/10/25 00:04:29;;;;;;;10.05;6.60;;;;;;;;;;5054972;28;20060;-83
2021/10/25 00:06:54;;;;;;;12.63;6.95;;;;;;;;;;5071217;28;20490;-85
2021/10/25 00:09:20;;;;;;;11.57;7.25;;;;;;;;;;5073591;28;20391;-85
2021/10/25 00:11:45;;;;;;;13.32;7.38;;;;;;;;;;5079719;28;20044;-85
2021/10/25 00:14:11;;;;;;;9.45;6.65;;;;;;;;;;5075665;28;20024;-85
2021/10/25 00:16:38;;;;;;;11.20;7.30;;;;;;;;;;5091118;28;20035;-85
2021/10/25 00:19:04;;;;;;;12.00;7.03;;;;;;;;;;5084869;28;20128;-85
2021/10/25 00:21:30;;;;;;;10.13;7.35;;;;;;;;;;5083992;28;20020;-85
2021/10/25 00:23:55;;;;;;;10.45;6.88;;;;;;;;;;5088499;28;20110;-85
2021/10/25 00:26:21;;;;;;;9.95;6.63;;;;;;;;;;5079106;28;20586;-85
2021/10/25 00:28:47;;;;;;;11.68;7.60;;;;;;;;;;5093113;28;20024;-85
2021/10/25 00:31:12;;;;;;;10.63;6.70;;;;;;;;;;5079975;28;20038;-85
2021/10/25 00:33:38;;;;;;;11.63;7.20;;;;;;;;;;5071977;28;20424;-85
2021/10/25 00:36:03;;;;;;;9.82;6.43;;;;;;;;;;5070627;28;20033;-85
2021/10/25 00:38:29;;;;;;;9.80;6.75;;;;;;;;;;5089470;28;20378;-84
2021/10/25 00:40:54;;;;;;;11.07;6.80;;;;;;;;;;5074420;28;20032;-85
2021/10/25 00:43:20;;;;;;;11.73;6.70;;;;;;;;;;5084844;28;20032;-85
2021/10/25 00:45:45;;;;;;;12.48;7.00;;;;;;;;;;5075501;28;20024;-84
2021/10/25 00:48:11;;;;;;;10.38;7.35;;;;;;;;;;5064841;28;20042;-83
2021/10/25 00:50:37;;;;;;;10.18;6.25;;;;;;;;;;5090513;28;20027;-83
2021/10/25 00:53:03;;;;;;;9.68;7.15;;;;;;;;;;5094233;28;20032;-83
2021/10/25 00:55:29;;;;;;;11.75;6.88;;;;;;;;;;5077372;28;20035;-84
2021/10/25 00:57:55;;;;;;;9.57;6.53;;;;;;;;;;5092578;28;20035;-83
2021/10/25 01:00:20;;;;;;;11.05;7.07;;;;;;;;;;5056829;28;20492;-85
2021/10/25 01:02:46;;;;;;;10.15;7.38;;;;;;;;;;5082803;28;20016;-84
2021/10/25 01:05:11;;;;;;;15.35;7.32;;;;;;;;;;5073016;28;20040;-83
2021/10/25 01:07:39;;;;;;;10.77;6.78;;;;;;;;;;5089531;28;20032;-84
2021/10/25 01:10:05;;;;;;;12.95;7.95;;;;;;;;;;5101223;28;20530;-85
2021/10/25 01:12:31;;;;;;;11.63;7.35;;;;;;;;;;5054206;28;20048;-85
2021/10/25 01:14:56;;;;;;;11.07;6.93;;;;;;;;;;5075366;28;20486;-85
2021/10/25 01:17:22;;;;;;;9.65;7.05;;;;;;;;;;5082842;28;20028;-84
2021/10/25 01:19:52;;;;;;;9.93;6.88;;;;;;;;;;5083649;28;20035;-84
2021/10/25 01:22:22;;;;;;;11.70;6.75;;;;;;;;;;5086003;28;20039;-84
2021/10/25 01:24:50;;;;;;;12.75;6.90;;;;;;;;;;5078872;28;20035;-85
2021/10/25 01:27:16;;;;;;;10.85;6.80;;;;;;;;;;5084260;28;20391;-83
2021/10/25 01:29:41;;;;;;;12.32;7.25;;;;;;;;;;5080389;28;20023;-84
2021/10/25 01:32:07;;;;;;;10.25;6.80;;;;;;;;;;5084809;28;20032;-84
2021/10/25 01:34:32;;;;;;;10.15;7.05;;;;;;;;;;5073406;28;20028;-84
2021/10/25 01:36:58;;;;;;;11.55;6.90;;;;;;;;;;5084109;28;20495;-83
2021/10/25 01:39:23;;;;;;;10.55;6.55;;;;;;;;;;5071557;28;20452;-85
2021/10/25 01:41:49;;;;;;;12.68;6.72;;;;;;;;;;5087542;28;20457;-85
2021/10/25 01:44:14;;;;;;;9.38;6.80;;;;;;;;;;5074268;28;20043;-83
2021/10/25 01:46:43;;;;;;;10.68;6.82;;;;;;;;;;5072805;28;20070;-84
2021/10/25 01:49:09;;;;;;;10.35;6.13;;;;;;;;;;5087473;28;20059;-84
2021/10/25 01:51:35;;;;;;;10.07;6.88;;;;;;;;;;5084899;28;20524;-85
2021/10/25 01:54:01;;;;;;;8.65;6.25;;;;;;;;;;5075316;28;20034;-83
2021/10/25 01:56:27;;;;;;;11.07;6.82;;;;;;;;;;5074670;28;20101;-83
2021/10/25 01:58:53;;;;;;;10.60;6.70;;;;;;;;;;5088264;28;20534;-84
2021/10/25 02:01:21;;;;;;;9.98;5.90;;;;;;;;;;5088510;28;20107;-85
2021/10/25 02:03:46;;;;;;;9.93;6.57;;;;;;;;;;5068307;28;20038;-83
2021/10/25 02:06:12;;;;;;;8.85;6.15;;;;;;;;;;5076081;28;20031;-84
2021/10/25 02:08:37;;;;;;;8.93;6.57;;;;;;;;;;5079825;28;20043;-84
2021/10/25 02:11:03;;;;;;;10.38;6.32;;;;;;;;;;5060383;28;20040;-84
2021/10/25 02:13:28;;;;;;;10.00;6.40;;;;;;;;;;5088028;28;20106;-85
2021/10/25 02:15:54;;;;;;;12.52;7.05;;;;;;;;;;5081705;28;20547;-83
2021/10/25 02:18:20;;;;;;;8.30;5.65;;;;;;;;;;5072444;28;20036;-84
2021/10/25 02:20:46;;;;;;;9.50;6.45;;;;;;;;;;5057067;28;20043;-85
2021/10/25 02:23:12;;;;;;;10.20;6.05;;;;;;;;;;5077129;28;20034;-83
2021/10/25 02:25:38;;;;;;;9.98;6.10;;;;;;;;;;5077369;28;20035;-85
2021/10/25 02:28:05;;;;;;;8.30;5.88;;;;;;;;;;5068839;28;20479;-85
2021/10/25 02:30:31;;;;;;;9.70;5.90;;;;;;;;;;5085410;28;20040;-84
2021/10/25 02:32:57;;;;;;;11.55;6.22;;;;;;;;;;5098699;28;20094;-83
2021/10/25 02:35:23;;;;;;;9.13;5.93;;;;;;;;;;5068179;28;20119;-85
2021/10/25 02:37:48;;;;;;;9.57;5.78;;;;;;;;;;5061846;28;20641;-85
2021/10/25 02:40:15;;;;;;;10.18;5.90;;;;;;;;;;5072676;28;20035;-84
2021/10/25 02:42:41;;;;;;;10.57;5.28;;;;;;;;;;5077486;28;20127;-83
2021/10/25 02:45:07;;;;;;;8.27;5.55;;;;;;;;;;5079673;28;20037;-84
2021/10/25 02:47:33;;;;;;;10.07;5.68;;;;;;;;;;5091118;28;20522;-83
2021/10/25 02:49:59;;;;;;;9.43;5.72;;;;;;;;;;5096334;28;20024;-84
2021/10/25 02:52:24;;;;;;;10.27;5.68;;;;;;;;;;5073766;28;20039;-85
2021/10/25 02:54:50;;;;;;;10.20;5.90;;;;;;;;;;5088745;28;20032;-83
2021/10/25 02:57:16;;;;;;;9.63;5.80;;;;;;;;;;5075032;28;20114;-83
2021/10/25 02:59:42;;;;;;;9.15;5.35;;;;;;;;;;5072960;28;20070;-84
2021/10/25 03:02:09;;;;;;;7.90;5.07;;;;;;;;;;5099138;28;20054;-83
2021/10/25 03:04:35;;;;;;;10.43;5.15;;;;;;;;;;5092245;28;20032;-83
2021/10/25 03:07:00;;;;;;;8.40;5.57;;;;;;;;;;5099953;28;20472;-84
2021/10/25 03:09:25;;;;;;;8.63;5.43;;;;;;;;;;5076954;28;20119;-85
2021/10/25 03:11:52;;;;;;;9.93;4.95;;;;;;;;;;5094692;28;20101;-85
2021/10/25 03:14:17;;;;;;;8.48;5.35;;;;;;;;;;5098756;28;20023;-84
2021/10/25 03:16:43;;;;;;;8.05;5.32;;;;;;;;;;5080745;28;20114;-84
2021/10/25 03:19:08;;;;;;;8.85;5.30;;;;;;;;;;5092356;28;20024;-83
2021/10/25 03:21:33;;;;;;;7.68;5.38;;;;;;;;;;5077255;28;20039;-83
2021/10/25 03:23:59;;;;;;;9.18;5.43;;;;;;;;;;5079132;28;20602;-85
2021/10/25 03:26:26;;;;;;;8.88;5.47;;;;;;;;;;5074941;28;20028;-84
2021/10/25 03:28:51;;;;;;;9.30;5.50;;;;;;;;;;5098624;28;20015;-84
2021/10/25 03:31:20;;;;;;;9.52;5.55;;;;;;;;;;5090136;28;20031;-84
2021/10/25 03:33:46;;;;;;;9.35;5.07;;;;;;;;;;5094580;28;20480;-84
2021/10/25 03:36:12;;;;;;;8.40;5.30;;;;;;;;;;5083631;28;20036;-83
2021/10/25 03:38:39;;;;;;;7.95;5.55;;;;;;;;;;5090722;28;20391;-82
2021/10/25 03:41:10;;;;;;;12.82;5.28;;;;;;;;;;5076420;28;20024;-83
2021/10/25 03:43:40;;;;;;;7.03;5.10;;;;;;;;;;5075626;28;20030;-83
2021/10/25 03:48:44;;;;;;;9.60;5.03;;;;;;;;;;5088558;28;20115;-85
2021/10/25 03:51:12;;;;;;;;;;;;;;;;;;5078200;28;20032;-84
2021/10/25 03:53:54;;;;;;;7.20;4.68;;;;;;;;;;5086377;28;19924;-84
2021/10/25 04:02:16;;;;;;;9.40;5.15;;;;;;;;;;5073761;28;20115;-85
2021/10/25 04:29:11;;;;;;;9.88;5.53;;;;;;;;;;5088693;28;20419;-83
2021/10/25 04:31:37;;;;;;;7.32;4.93;;;;;;;;;;5073960;28;20032;-85
2021/10/25 04:34:02;;;;;;;8.68;5.32;;;;;;;;;;5074469;28;20088;-85
2021/10/25 04:36:27;;;;;;;8.18;5.13;;;;;;;;;;5076336;28;20735;-84
2021/10/25 04:38:53;;;;;;;9.25;5.45;;;;;;;;;;5064847;28;20040;-84
2021/10/25 04:41:18;;;;;;;9.63;5.15;;;;;;;;;;5086553;28;20027;-82
2021/10/25 04:43:44;;;;;;;8.25;4.93;;;;;;;;;;5051988;28;20056;-84
2021/10/25 04:46:10;;;;;;;10.70;5.45;;;;;;;;;;5072054;28;20031;-84
2021/10/25 04:48:35;;;;;;;8.13;5.38;;;;;;;;;;5068625;28;20036;-84
2021/10/25 04:51:01;;;;;;;10.60;5.93;;;;;;;;;;5084216;28;20493;-83
2021/10/25 04:53:26;;;;;;;7.10;4.97;;;;;;;;;;5075143;28;20518;-84
2021/10/25 04:55:52;;;;;;;8.63;5.25;;;;;;;;;;5088553;28;20039;-83
2021/10/25 04:58:17;;;;;;;8.88;4.80;;;;;;;;;;5073450;28;20042;-84
2021/10/25 05:00:42;;;;;;;8.82;5.60;;;;;;;;;;5075918;28;20051;-84
2021/10/25 05:03:08;;;;;;;8.20;4.93;;;;;;;;;;5092670;28;20050;-84
2021/10/25 05:05:33;;;;;;;9.90;5.57;;;;;;;;;;5085654;28;20055;-83
2021/10/25 05:07:59;;;;;;;8.18;5.03;;;;;;;;;;5074408;28;20040;-83
2021/10/25 05:10:24;;;;;;;9.43;5.00;;;;;;;;;;5078798;28;20028;-83
2021/10/25 05:12:50;;;;;;;9.93;5.60;;;;;;;;;;5080070;28;20047;-84
2021/10/25 05:15:16;;;;;;;11.15;4.95;;;;;;;;;;5080785;28;20041;-84
2021/10/25 05:17:41;;;;;;;14.18;4.90;;;;;;;;;;5080898;28;20072;-83
2021/10/25 05:20:08;;;;;;;10.68;4.95;;;;;;;;;;5085663;28;20459;-83
2021/10/25 05:22:33;;;;;;;8.07;5.30;;;;;;;;;;5080415;28;20031;-84
2021/10/25 05:24:59;;;;;;;8.48;5.25;;;;;;;;;;5077564;28;20045;-84
2021/10/25 05:27:25;;;;;;;7.95;4.88;;;;;;;;;;5075197;28;20055;-85
2021/10/25 05:29:51;;;;;;;9.18;4.85;;;;;;;;;;5086763;28;20054;-84
2021/10/25 05:32:17;;;;;;;8.10;5.10;;;;;;;;;;5083851;28;20043;-82
2021/10/25 05:34:43;;;;;;;8.30;4.60;;;;;;;;;;5073094;28;20028;-84
2021/10/25 05:37:08;;;;;;;8.90;5.47;;;;;;;;;;5061930;28;20448;-84
2021/10/25 05:39:34;;;;;;;9.38;4.75;;;;;;;;;;5082679;28;20024;-84
2021/10/25 05:42:02;;;;;;;8.80;5.15;;;;;;;;;;5089337;28;20082;-83
2021/10/25 05:44:29;;;;;;;11.35;5.35;;;;;;;;;;5091462;28;20408;-83
2021/10/25 05:46:54;;;;;;;9.88;5.00;;;;;;;;;;5077555;28;20047;-84
2021/10/25 05:49:20;;;;;;;7.03;4.82;;;;;;;;;;5076278;28;20048;-84
2021/10/25 05:51:45;;;;;;;10.20;5.22;;;;;;;;;;5091365;28;20061;-84
2021/10/25 05:54:11;;;;;;;8.25;5.20;;;;;;;;;;5084548;28;20033;-84
2021/10/25 05:56:36;;;;;;;9.52;5.05;;;;;;;;;;5055269;28;20031;-83
2021/10/25 05:59:03;;;;;;;8.50;4.72;;;;;;;;;;5078250;28;20157;-84
2021/10/25 06:01:34;;;;;;;7.72;5.07;;;;;;;;;;5073240;28;20498;-84
2021/10/25 06:04:05;;;;;;;7.80;4.93;;;;;;;;;;5072219;28;20161;-83
2021/10/25 06:06:30;;;;;;;8.13;4.57;;;;;;;;;;5088801;28;20122;-83
2021/10/25 06:08:55;;;;;;;6.85;4.70;;;;;;;;;;5080634;28;20143;-84
2021/10/25 06:11:21;;;;;;;7.35;4.75;;;;;;;;;;5086858;28;20078;-83
2021/10/25 06:13:46;;;;;;;9.18;4.70;;;;;;;;;;5077995;28;20123;-84
2021/10/25 06:16:15;;;;;;;8.95;5.18;;;;;;;;;;5092568;28;20513;-85
2021/10/25 06:18:42;;;;;;;10.25;4.85;;;;;;;;;;5081020;28;20494;-83
2021/10/25 06:21:08;;;;;;;7.68;4.90;;;;;;;;;;5096349;28;20054;-83
2021/10/25 06:23:34;;;;;;;7.25;4.63;;;;;;;;;;5092821;28;20063;-84
2021/10/25 06:26:00;;;;;;;8.57;4.75;;;;;;;;;;5072246;28;20033;-84
2021/10/25 06:28:26;;;;;;;8.57;4.95;;;;;;;;;;5087430;28;20032;-84
2021/10/25 06:31:02;;;;;;;11.40;5.43;;;;;;;;;;5070943;28;20608;-84
2021/10/25 06:33:28;;;;;;;7.03;4.70;;;;;;;;;;5079361;28;20025;-84
2021/10/25 06:36:04;;;;;;;7.70;4.90;;;;;;;;;;5086162;28;20074;-84
2021/10/25 06:38:34;;;;;;;8.77;4.85;;;;;;;;;;5091118;28;20042;-82
2021/10/25 06:41:00;;;;;;;8.50;4.53;;;;;;;;;;5087831;28;20032;-85
2021/10/25 06:43:26;;;;;;;9.63;4.93;;;;;;;;;;5075416;28;20036;-84
2021/10/25 06:45:52;;;;;;;10.57;5.00;;;;;;;;;;5094487;28;20537;-85
2021/10/25 06:48:17;;;;;;;8.80;4.57;;;;;;;;;;5090069;28;20059;-84
2021/10/25 06:50:43;;;;;;;9.07;5.22;;;;;;;;;;5077865;28;20443;-83
2021/10/25 06:53:09;;;;;;;9.02;5.03;;;;;;;;;;5067324;28;20027;-83
2021/10/25 06:55:35;;;;;;;8.27;4.53;;;;;;;;;;5090180;28;20033;-84
2021/10/25 06:58:04;;;;;;;8.18;5.20;;;;;;;;;;5101620;28;20024;-83
2021/10/25 07:00:30;;;;;;;7.15;4.38;;;;;;;;;;5085818;28;20028;-84
2021/10/25 07:02:55;;;;;;;9.18;4.28;;;;;;;;;;5094772;28;20098;-84
2021/10/25 07:05:21;;;;;;;7.03;4.40;;;;;;;;;;5076915;28;20040;-85
2021/10/25 07:07:47;;;;;;;8.30;4.95;;;;;;;;;;5061746;28;20101;-83
2021/10/25 07:10:13;;;;;;;7.95;4.55;;;;;;;;;;5093260;28;20039;-83
2021/10/25 07:12:39;;;;;;;8.18;4.35;;;;;;;;;;5092010;28;20040;-83
2021/10/25 07:15:06;;;;;;;6.72;4.28;;;;;;;;;;5089890;28;20050;-84
2021/10/25 08:01:32;;;;;;;8.30;4.18;;;;;;;;;;5090387;28;20378;-83
2021/10/25 08:04:35;;;;;;;9.68;4.50;;;;;;;;;;5080784;28;20035;-84
2021/10/25 08:07:09;;;;;;;9.75;4.82;;;;;;;;;;5098011;28;20516;-83
2021/10/25 08:09:50;;;;;;;10.98;4.85;;;;;;;;;;5095677;28;20437;-84
2021/10/25 08:12:18;;;;;;;9.02;5.07;;;;;;;;;;5087427;28;20043;-84
2021/10/25 08:14:50;;;;;;;10.65;4.82;;;;;;;;;;5077989;28;20036;-84
2021/10/25 08:17:20;;;;;;;12.27;4.93;;;;;;;;;;5089111;28;20487;-82
2021/10/25 08:19:46;;;;;;;6.25;4.65;;;;;;;;;;5087102;28;20037;-83
2021/10/25 08:22:15;;;;;;;12.20;5.47;;;;;;;;;;5094096;28;20036;-82
2021/10/25 08:24:44;;;;;;;11.30;5.30;;;;;;;;;;5091184;28;20020;-84
2021/10/25 08:27:11;;;;;;;9.43;4.55;;;;;;;;;;5095783;28;20028;-82
2021/10/25 08:29:53;;;;;;;8.50;4.68;;;;;;;;;;5071865;28;20039;-82
2021/10/25 08:35:31;;;;;;;6.97;4.47;;;;;;;;;;5036706;28;20044;-84
2021/10/25 08:40:56;;;;;;;6.80;4.47;;;;;;;;;;5095718;28;20081;-84
2021/10/25 08:43:26;;;;;;;7.40;4.70;;;;;;;;;;5090587;28;20019;-84
2021/10/25 08:45:57;;;;;;;8.70;4.68;;;;;;;;;;5090803;28;20063;-84
2021/10/25 08:48:23;;;;;;;8.32;4.63;;;;;;;;;;5098146;28;20135;-84
2021/10/25 08:50:57;;;;;;;9.90;4.78;;;;;;;;;;5069351;28;20118;-84
2021/10/25 08:53:25;;;;;;;8.95;5.40;;;;;;;;;;5089194;28;20043;-84
2021/10/25 08:55:57;;;;;;;10.20;4.88;;;;;;;;;;5090758;28;20020;-84
2021/10/25 08:58:29;;;;;;;6.55;4.53;;;;;;;;;;5092413;28;20035;-84
2021/10/25 09:01:00;;;;;;;7.53;4.63;;;;;;;;;;5073920;28;20028;-82
2021/10/25 09:03:30;;;;;;;7.63;4.50;;;;;;;;;;5085868;28;20077;-82
2021/10/25 09:06:01;;;;;;;9.00;5.20;;;;;;;;;;5068443;28;20056;-85
2021/10/25 09:08:29;;;;;;;8.85;5.22;;;;;;;;;;5078673;28;20076;-84
2021/10/25 09:10:59;;;;;;;7.30;4.80;;;;;;;;;;5079844;28;20058;-82
2021/10/25 09:13:34;;;;;;;7.07;5.35;;;;;;;;;;5099491;28;20380;-86
2021/10/25 09:16:03;;;;;;;7.97;5.18;;;;;;;;;;5086736;28;20782;-82
2021/10/25 09:18:32;;;;;;;7.82;4.90;;;;;;;;;;5085649;28;20375;-83
2021/10/25 09:21:07;;;;;;;8.07;5.22;;;;;;;;;;5087587;28;21160;-82
2021/10/25 09:23:50;;;;;;;12.57;5.32;;;;;;;;;;5075635;28;20030;-83
2021/10/25 09:26:49;;;;;;;9.30;5.28;;;;;;;;;;5090268;28;20020;-84
2021/10/25 09:29:35;;;;;;;10.95;5.07;;;;;;;;;;5075613;28;20051;-83
2021/10/25 09:32:10;;;;;;;8.82;5.10;;;;;;;;;;5104879;28;20031;-82
2021/10/25 09:34:51;;;;;;;9.70;4.60;;;;;;;;;;5083888;28;20336;-83
2021/10/25 09:37:29;;;;;;;8.13;5.30;;;;;;;;;;5092625;28;20039;-81
2021/10/25 09:40:17;;;;;;;7.13;4.72;;;;;;;;;;5072982;28;20139;-81
2021/10/25 09:43:14;;;;;;;10.93;5.03;;;;;;;;;;5093984;28;20027;-84
2021/10/25 09:45:57;;;;;;;7.95;5.00;;;;;;;;;;5077446;28;20030;-82
2021/10/25 09:51:00;;;;;;;9.50;5.00;;;;;;;;;;5093739;28;20681;-83
2021/10/25 09:53:33;;;;;;;7.85;5.00;;;;;;;;;;5100208;28;20034;-83
2021/10/25 09:56:08;;;;;;;10.82;5.28;;;;;;;;;;5095564;28;20030;-83
2021/10/25 09:58:43;;;;;;;9.20;5.18;;;;;;;;;;5094033;28;20409;-82
2021/10/25 10:01:11;;;;;;;9.45;4.80;;;;;;;;;;5083936;28;20028;-83
2021/10/25 10:03:37;;;;;;;8.60;5.07;;;;;;;;;;5096140;28;20035;-84
2021/10/25 10:06:10;;;;;;;9.82;5.47;;;;;;;;;;5096045;28;20032;-84
2021/10/25 10:08:39;;;;;;;9.15;5.10;;;;;;;;;;5071032;28;20435;-84
2021/10/25 10:11:09;;;;;;;8.45;5.22;;;;;;;;;;5098377;28;20466;-84
2021/10/25 10:13:41;;;;;;;7.43;4.55;;;;;;;;;;5084979;28;20065;-84
2021/10/25 10:16:10;;;;;;;8.48;5.22;;;;;;;;;;5082047;28;20031;-83
2021/10/25 10:18:40;;;;;;;11.32;5.05;;;;;;;;;;5092852;28;20043;-83
2021/10/25 10:21:15;;;;;;;9.15;5.32;;;;;;;;;;5082464;28;20039;-82
2021/10/25 10:23:52;;;;;;;8.68;5.05;;;;;;;;;;5077226;28;20052;-84
2021/10/25 10:26:17;;;;;;;8.68;4.68;;;;;;;;;;5078536;28;20115;-83
2021/10/25 10:29:07;;;;;;;8.90;5.35;;;;;;;;;;5060344;28;20132;-82
2021/10/25 10:31:35;;;;;;;8.18;5.18;;;;;;;;;;5075937;28;20160;-84
2021/10/25 10:34:12;;;;;;;9.00;5.45;;;;;;;;;;5060474;28;20028;-83
2021/10/25 10:37:00;;;;;;;8.98;5.10;;;;;;;;;;5078404;28;20035;-84
2021/10/25 10:39:36;;;;;;;10.38;5.35;;;;;;;;;;5060206;28;20043;-83
2021/10/25 10:42:05;;;;;;;8.55;5.25;;;;;;;;;;5072280;28;20029;-84
2021/10/25 10:44:31;;;;;;;10.43;4.90;;;;;;;;;;5065936;28;20170;-84
2021/10/25 10:47:07;;;;;;;9.30;5.10;;;;;;;;;;5064146;28;22438;-82
2021/10/25 10:49:48;;;;;;;9.35;4.80;;;;;;;;;;5089556;28;20024;-86
2021/10/25 10:55:16;;;;;;;7.38;5.43;;;;;;;;;;5084958;28;20589;-83
2021/10/25 11:00:24;;;;;;;8.68;5.32;;;;;;;;;;5085294;28;20031;-82
2021/10/25 11:03:16;;;;;;;11.63;5.85;;;;;;;;;;5086511;28;20022;-83
2021/10/25 11:06:17;;;;;;;8.15;5.13;;;;;;;;;;5084881;28;20052;-83
2021/10/25 11:08:48;;;;;;;12.52;5.18;;;;;;;;;;5071856;28;20043;-82
2021/10/25 11:11:20;;;;;;;9.85;5.60;;;;;;;;;;5088155;28;20115;-84
2021/10/25 11:14:02;;;;;;;9.40;5.22;;;;;;;;;;5083111;28;20100;-83
2021/10/25 11:16:56;;;;;;;9.68;5.50;;;;;;;;;;5087052;28;20045;-84
2021/10/25 11:19:21;;;;;;;8.73;5.53;;;;;;;;;;5090949;28;20028;-83
2021/10/25 11:21:54;;;;;;;9.02;5.60;;;;;;;;;;5090128;28;20048;-84
2021/10/25 11:24:23;;;;;;;14.18;5.35;;;;;;;;;;5065784;28;20089;-83
2021/10/25 11:26:53;;;;;;;9.25;5.28;;;;;;;;;;5051457;28;20043;-82
2021/10/25 11:29:24;;;;;;;9.85;5.95;;;;;;;;;;5083145;28;20114;-83
2021/10/25 11:32:08;;;;;;;9.73;5.60;;;;;;;;;;5093044;28;20039;-83
2021/10/25 11:34:45;;;;;;;8.10;5.85;;;;;;;;;;5090995;28;20032;-83
2021/10/25 11:40:23;;;;;;;8.05;5.68;;;;;;;;;;5093388;28;20067;-83
2021/10/25 11:42:59;;;;;;;9.02;5.57;;;;;;;;;;5089258;28;20028;-83
2021/10/25 11:45:25;;;;;;;9.98;5.90;;;;;;;;;;5064787;28;20037;-83
2021/10/25 11:47:54;;;;;;;10.23;5.85;;;;;;;;;;5070027;28;20028;-82
2021/10/25 11:50:31;;;;;;;9.98;5.40;;;;;;;;;;5075398;28;20040;-82
2021/10/25 11:53:20;;;;;;;8.65;5.70;;;;;;;;;;5089944;28;20035;-83
2021/10/25 11:56:43;;;;;;;10.55;5.93;;;;;;;;;;5071961;28;20055;-81
2021/10/25 11:59:33;;;;;;;11.77;6.10;;;;;;;;;;5070133;28;20044;-83
2021/10/25 12:02:29;;;;;;;9.88;6.53;;;;;;;;;;5087022;28;20020;-82
2021/10/25 12:04:57;;;;;;;10.63;5.95;;;;;;;;;;5085701;28;20562;-83
2021/10/25 12:07:27;;;;;;;12.65;6.28;;;;;;;;;;5090858;28;20109;-83
2021/10/25 12:10:06;;;;;;;10.27;6.60;;;;;;;;;;5096734;28;21874;-83
2021/10/25 12:12:33;;;;;;;8.43;6.22;;;;;;;;;;5086830;28;20064;-83
2021/10/25 12:15:01;;;;;;;9.00;6.32;;;;;;;;;;5095558;28;20028;-82
2021/10/25 12:17:33;;;;;;;11.65;6.38;;;;;;;;;;5102236;28;20024;-83
2021/10/25 12:20:05;;;;;;;9.15;6.20;;;;;;;;;;5089920;28;20020;-81
2021/10/25 12:22:30;;;;;;;8.93;5.82;;;;;;;;;;5074104;28;20029;-82
2021/10/25 12:25:00;;;;;;;11.00;6.15;;;;;;;;;;5078958;28;20031;-83
2021/10/25 12:27:38;;;;;;;10.90;6.53;;;;;;;;;;5101194;28;20516;-81
2021/10/25 12:30:08;;;;;;;8.45;5.75;;;;;;;;;;5090386;28;20861;-82
2021/10/25 12:32:39;;;;;;;11.38;6.88;;;;;;;;;;5088373;28;20506;-83
2021/10/25 12:35:06;;;;;;;8.77;5.90;;;;;;;;;;5083914;28;20028;-82
2021/10/25 12:37:33;;;;;;;14.32;7.10;;;;;;;;;;5073048;28;21181;-83
2021/10/25 12:40:14;;;;;;;10.27;7.00;;;;;;;;;;5084602;28;20032;-82
2021/10/25 12:42:48;;;;;;;12.75;6.90;;;;;;;;;;5083358;28;20036;-83
2021/10/25 12:45:44;;;;;;;9.57;6.43;;;;;;;;;;5086259;28;20082;-82
2021/10/25 12:48:12;;;;;;;9.43;6.57;;;;;;;;;;5081323;28;20043;-83
2021/10/25 12:50:46;;;;;;;13.02;6.55;;;;;;;;;;5071477;28;20044;-83
2021/10/25 12:53:13;;;;;;;10.57;6.90;;;;;;;;;;5082289;28;20032;-83
2021/10/25 12:55:42;;;;;;;10.73;7.90;;;;;;;;;;5084954;28;20039;-83
2021/10/25 12:58:12;;;;;;;13.13;7.78;;;;;;;;;;5093854;28;20062;-82
2021/10/25 13:00:38;;;;;;;10.88;7.25;;;;;;;;;;5095165;28;20475;-82
2021/10/25 13:03:09;;;;;;;12.43;7.97;;;;;;;;;;5086070;28;20181;-83
2021/10/25 13:05:37;;;;;;;11.75;7.50;;;;;;;;;;5080227;28;20025;-81
2021/10/25 13:08:08;;;;;;;14.30;7.47;;;;;;;;;;5072919;28;20567;-82
2021/10/25 13:10:40;;;;;;;11.90;7.57;;;;;;;;;;5076150;28;20488;-82
2021/10/25 13:13:09;;;;;;;12.00;7.10;;;;;;;;;;5081595;28;20036;-83
2021/10/25 13:15:41;;;;;;;13.65;6.80;;;;;;;;;;5081822;28;20046;-83
2021/10/25 13:18:10;;;;;;;10.35;6.93;;;;;;;;;;5071284;28;20036;-82
2021/10/25 13:20:40;;;;;;;10.38;6.22;;;;;;;;;;5082521;28;20462;-81
2021/10/25 13:23:11;;;;;;;8.90;6.60;;;;;;;;;;5079199;28;20093;-83
2021/10/25 13:25:38;;;;;;;14.52;6.90;;;;;;;;;;5071854;28;20028;-82
2021/10/25 13:28:11;;;;;;;8.95;6.35;;;;;;;;;;5074121;28;20028;-82
2021/10/25 13:30:37;;;;;;;10.03;6.27;;;;;;;;;;5065961;28;20031;-83
2021/10/25 13:33:11;;;;;;;12.00;7.18;;;;;;;;;;5093647;28;20028;-83
2021/10/25 13:35:41;;;;;;;11.02;6.47;;;;;;;;;;5084358;28;20093;-83
2021/10/25 13:38:10;;;;;;;10.63;6.53;;;;;;;;;;5063792;28;20136;-83
2021/10/25 13:40:43;;;;;;;11.00;6.05;;;;;;;;;;5064857;28;20131;-82
2021/10/25 13:43:12;;;;;;;10.17;6.20;;;;;;;;;;5096704;28;20024;-82
2021/10/25 13:45:47;;;;;;;11.43;6.47;;;;;;;;;;5041984;28;20289;-84
2021/10/25 13:48:14;;;;;;;9.95;6.47;;;;;;;;;;5063556;28;20038;-82
2021/10/25 13:50:42;;;;;;;9.48;5.88;;;;;;;;;;5069515;28;20090;-82
2021/10/25 13:53:09;;;;;;;11.68;7.15;;;;;;;;;;5059262;28;20040;-84
2021/10/25 13:55:44;;;;;;;7.63;6.40;;;;;;;;;;5085890;28;20036;-81
2021/10/25 13:58:40;;;;;;;8.27;6.05;;;;;;;;;;5065207;28;20066;-82
2021/10/25 14:01:16;;;;;;;7.93;5.65;;;;;;;;;;5076415;28;20027;-81
2021/10/25 14:03:45;;;;;;;11.07;6.70;;;;;;;;;;5066464;28;20155;-83
2021/10/25 14:06:19;;;;;;;9.93;6.63;;;;;;;;;;5057651;28;20042;-83
2021/10/25 14:08:48;;;;;;;10.10;7.00;;;;;;;;;;5054206;28;20044;-84
2021/10/25 14:11:18;;;;;;;11.63;7.07;;;;;;;;;;5083343;28;20676;-81
2021/10/25 14:18:49;;;;;;;10.27;7.05;;;;;;;;;;5077669;28;20078;-85
2021/10/25 14:21:18;;;;;;;9.95;6.38;;;;;;;;;;5063500;28;20303;-81
2021/10/25 14:23:47;;;;;;;11.63;7.03;;;;;;;;;;5085416;28;20030;-82
2021/10/25 14:26:19;;;;;;;10.65;7.03;;;;;;;;;;5087016;28;20507;-81
2021/10/25 14:28:44;;;;;;;12.82;6.78;;;;;;;;;;5077482;28;20542;-83
2021/10/25 14:31:15;;;;;;;9.65;7.03;;;;;;;;;;5074622;28;20038;-82
2021/10/25 14:33:41;;;;;;;10.25;7.18;;;;;;;;;;5067002;28;20466;-82
2021/10/25 14:36:21;;;;;;;11.85;7.47;;;;;;;;;;5061740;28;20027;-82
2021/10/25 14:44:08;;;;;;;9.30;6.65;;;;;;;;;;5085036;28;20035;-83
2021/10/25 14:46:58;;;;;;;9.57;6.82;;;;;;;;;;5062254;28;20126;-82
2021/10/25 14:55:03;;;;;;;10.68;7.38;;;;;;;;;;5085618;28;20568;-83
2021/10/25 14:57:24;;;;;;;10.32;6.60;;;;;;;;;;5078936;28;20040;-81
2021/10/25 14:59:52;;;;;;;9.15;6.30;;;;;;;;;;5080470;28;20442;-82
2021/10/25 15:02:28;;;;;;;11.23;6.60;;;;;;;;;;5065828;28;20483;-83
2021/10/25 15:04:55;;;;;;;8.32;6.28;;;;;;;;;;5063948;28;20036;-83
2021/10/25 15:07:22;;;;;;;9.95;6.50;;;;;;;;;;5068695;28;20025;-83
2021/10/25 15:09:55;;;;;;;8.27;6.63;;;;;;;;;;5064729;28;20101;-83
2021/10/25 15:12:28;;;;;;;7.88;6.25;;;;;;;;;;5073353;28;20043;-83
2021/10/25 15:14:54;;;;;;;9.55;6.70;;;;;;;;;;5073354;28;20080;-83
2021/10/25 15:17:20;;;;;;;11.13;6.70;;;;;;;;;;5070563;28;20083;-83
2021/10/25 15:19:49;;;;;;;11.05;7.13;;;;;;;;;;5085736;28;20115;-82
2021/10/25 15:22:35;;;;;;;12.27;7.15;;;;;;;;;;5083534;28;20060;-83
2021/10/25 15:25:04;;;;;;;9.27;6.25;;;;;;;;;;5080230;28;20102;-82
2021/10/25 15:27:29;;;;;;;9.65;6.32;;;;;;;;;;5083947;28;20040;-82
2021/10/25 15:29:56;;;;;;;8.57;6.68;;;;;;;;;;5065605;28;20044;-83
2021/10/25 15:32:28;;;;;;;10.13;7.53;;;;;;;;;;5082319;28;20020;-83
2021/10/25 15:34:55;;;;;;;8.73;7.18;;;;;;;;;;5081320;28;20461;-82
2021/10/25 15:37:28;;;;;;;10.52;7.40;;;;;;;;;;5080033;28;20024;-83
2021/10/25 15:40:00;;;;;;;11.50;8.60;;;;;;;;;;5069031;28;20036;-82
2021/10/25 15:42:32;;;;;;;16.98;9.32;;;;;;;;;;5068022;28;20040;-83
2021/10/25 15:45:02;;;;;;;15.00;10.52;;;;;;;;;;5065804;28;20023;-82
2021/10/25 15:47:29;;;;;;;18.45;13.07;;;;;;;;;;5053567;28;20032;-83
2021/10/25 15:50:02;;;;;;;14.05;10.38;;;;;;;;;;5086088;28;20040;-82
2021/10/25 15:52:28;;;;;;;9.27;6.68;;;;;;;;;;5081803;28;20032;-85
2021/10/25 15:55:05;;;;;;;13.45;10.27;;;;;;;;;;5057048;28;20047;-83
2021/10/25 15:57:35;;;;;;;12.45;8.63;;;;;;;;;;5073162;28;20040;-82
2021/10/25 16:00:07;;;;;;;11.90;6.90;;;;;;;;;;5089980;28;20555;-82
2021/10/25 16:02:32;;;;;;;7.70;5.80;;;;;;;;;;5085745;28;20119;-83
2021/10/25 16:05:06;;;;;;;8.10;5.78;;;;;;;;;;5064098;28;20527;-82
2021/10/25 16:07:35;;;;;;;8.57;6.32;;;;;;;;;;5078443;28;20031;-82
2021/10/25 16:10:05;;;;;;;9.32;6.55;;;;;;;;;;5084128;28;20071;-82
2021/10/25 16:12:53;;;;;;;9.60;7.35;;;;;;;;;;5077173;28;20028;-83
2021/10/25 16:15:38;;;;;;;10.27;6.20;;;;;;;;;;5065174;28;20106;-83
2021/10/25 16:18:05;;;;;;;9.65;6.03;;;;;;;;;;5048251;28;20123;-82
2021/10/25 16:20:33;;;;;;;9.48;6.85;;;;;;;;;;5062003;28;20047;-82
2021/10/25 16:22:59;;;;;;;9.93;7.05;;;;;;;;;;5058392;28;20029;-82
2021/10/25 16:25:24;;;;;;;10.80;6.40;;;;;;;;;;5061115;28;20039;-82
2021/10/25 16:27:52;;;;;;;9.93;6.63;;;;;;;;;;5045343;28;20147;-83
2021/10/25 16:30:23;;;;;;;8.70;5.65;;;;;;;;;;5062769;28;20536;-82
2021/10/25 16:32:51;;;;;;;11.25;6.78;;;;;;;;;;5052791;28;20059;-83
2021/10/25 16:35:16;;;;;;;8.00;6.20;;;;;;;;;;5037410;28;20068;-82
2021/10/25 16:37:42;;;;;;;9.40;5.95;;;;;;;;;;5062184;28;20067;-83
2021/10/25 16:40:11;;;;;;;9.15;6.50;;;;;;;;;;5077007;28;20032;-83
2021/10/25 16:42:40;;;;;;;8.68;6.22;;;;;;;;;;5050552;28;20021;-83
2021/10/25 16:45:11;;;;;;;10.27;6.60;;;;;;;;;;5048531;28;20028;-82